sensor_id;sensor_type;location;lat;lon;timestamp;P1;durP1;ratioP1;P2;durP2;ratioP2
82727;SDS011;72459;50.110;8.750;2024-01-06T00:01:24;5.60;;;1.40;;
82727;SDS011;72459;50.110;8.750;2024-01-06T00:03:49;3.40;;;1.05;;
82727;SDS011;72459;50.110;8.750;2024-01-06T00:06:14;3.30;;;1.02;;
82727;SDS011;72459;50.110;8.750;2024-01-06T00:08:40;3.50;;;1.13;;
82727;SDS011;72459;50.110;8.750;2024-01-06T00:11:05;3.75;;;1.05;;
82727;SDS011;72459;50.110;8.750;2024-01-06T00:13:31;3.17;;;1.10;;
82727;SDS011;72459;50.110;8.750;2024-01-06T00:15:56;3.58;;;1.15;;
82727;SDS011;72459;50.110;8.750;2024-01-06T00:18:22;4.40;;;1.15;;
82727;SDS011;72459;50.110;8.750;2024-01-06T00:20:47;4.93;;;1.30;;
82727;SDS011;72459;50.110;8.750;2024-01-06T00:23:13;3.03;;;0.98;;
82727;SDS011;72459;50.110;8.750;2024-01-06T00:25:38;2.53;;;1.15;;
82727;SDS011;72459;50.110;8.750;2024-01-06T00:28:04;3.78;;;1.50;;
82727;SDS011;72459;50.110;8.750;2024-01-06T00:30:29;3.90;;;1.30;;
82727;SDS011;72459;50.110;8.750;2024-01-06T00:32:55;4.35;;;1.30;;
82727;SDS011;72459;50.110;8.750;2024-01-06T00:35:20;3.50;;;1.30;;
82727;SDS011;72459;50.110;8.750;2024-01-06T00:37:47;5.57;;;1.65;;
82727;SDS011;72459;50.110;8.750;2024-01-06T00:40:12;5.07;;;1.58;;
82727;SDS011;72459;50.110;8.750;2024-01-06T00:42:38;6.18;;;1.90;;
82727;SDS011;72459;50.110;8.750;2024-01-06T00:45:03;4.60;;;1.60;;
82727;SDS011;72459;50.110;8.750;2024-01-06T00:47:30;5.75;;;2.20;;
82727;SDS011;72459;50.110;8.750;2024-01-06T00:49:56;4.55;;;1.73;;
82727;SDS011;72459;50.110;8.750;2024-01-06T00:52:21;5.88;;;1.80;;
82727;SDS011;72459;50.110;8.750;2024-01-06T00:54:46;5.53;;;1.77;;
82727;SDS011;72459;50.110;8.750;2024-01-06T00:57:12;5.43;;;1.80;;
82727;SDS011;72459;50.110;8.750;2024-01-06T00:59:37;5.45;;;2.10;;
82727;SDS011;72459;50.110;8.750;2024-01-06T01:02:03;4.53;;;2.22;;
82727;SDS011;72459;50.110;8.750;2024-01-06T01:04:28;6.13;;;2.13;;
82727;SDS011;72459;50.110;8.750;2024-01-06T01:06:54;9.40;;;2.55;;
82727;SDS011;72459;50.110;8.750;2024-01-06T01:09:19;5.45;;;2.30;;
82727;SDS011;72459;50.110;8.750;2024-01-06T01:11:44;5.15;;;2.50;;
82727;SDS011;72459;50.110;8.750;2024-01-06T01:14:10;6.55;;;2.50;;
82727;SDS011;72459;50.110;8.750;2024-01-06T01:16:35;5.20;;;2.55;;
82727;SDS011;72459;50.110;8.750;2024-01-06T01:19:01;4.47;;;2.40;;
82727;SDS011;72459;50.110;8.750;2024-01-06T01:21:27;6.68;;;2.40;;
82727;SDS011;72459;50.110;8.750;2024-01-06T01:23:53;6.28;;;3.15;;
82727;SDS011;72459;50.110;8.750;2024-01-06T01:26:18;5.85;;;2.55;;
82727;SDS011;72459;50.110;8.750;2024-01-06T01:28:43;7.88;;;2.25;;
82727;SDS011;72459;50.110;8.750;2024-01-06T01:31:09;6.28;;;1.63;;
82727;SDS011;72459;50.110;8.750;2024-01-06T01:33:34;4.32;;;1.52;;
82727;SDS011;72459;50.110;8.750;2024-01-06T01:36:00;4.60;;;2.13;;
82727;SDS011;72459;50.110;8.750;2024-01-06T01:38:25;5.25;;;2.00;;
82727;SDS011;72459;50.110;8.750;2024-01-06T01:40:50;5.28;;;1.90;;
82727;SDS011;72459;50.110;8.750;2024-01-06T01:43:16;5.33;;;1.73;;
82727;SDS011;72459;50.110;8.750;2024-01-06T01:45:43;7.25;;;1.70;;
82727;SDS011;72459;50.110;8.750;2024-01-06T01:48:08;4.47;;;1.67;;
82727;SDS011;72459;50.110;8.750;2024-01-06T01:50:34;5.38;;;1.63;;
82727;SDS011;72459;50.110;8.750;2024-01-06T01:52:59;6.65;;;1.60;;
82727;SDS011;72459;50.110;8.750;2024-01-06T01:55:25;3.17;;;1.30;;
82727;SDS011;72459;50.110;8.750;2024-01-06T01:57:50;3.67;;;1.25;;
82727;SDS011;72459;50.110;8.750;2024-01-06T02:00:17;3.25;;;1.40;;
82727;SDS011;72459;50.110;8.750;2024-01-06T02:02:42;5.05;;;1.70;;
82727;SDS011;72459;50.110;8.750;2024-01-06T02:05:08;5.47;;;1.50;;
82727;SDS011;72459;50.110;8.750;2024-01-06T02:07:34;2.10;;;1.02;;
82727;SDS011;72459;50.110;8.750;2024-01-06T02:09:59;5.22;;;1.30;;
82727;SDS011;72459;50.110;8.750;2024-01-06T02:12:25;2.95;;;1.17;;
82727;SDS011;72459;50.110;8.750;2024-01-06T02:14:50;2.90;;;1.17;;
82727;SDS011;72459;50.110;8.750;2024-01-06T02:17:16;5.38;;;1.50;;
82727;SDS011;72459;50.110;8.750;2024-01-06T02:19:41;3.97;;;1.20;;
82727;SDS011;72459;50.110;8.750;2024-01-06T02:22:07;3.50;;;1.40;;
82727;SDS011;72459;50.110;8.750;2024-01-06T02:24:32;3.45;;;1.40;;
82727;SDS011;72459;50.110;8.750;2024-01-06T02:26:57;2.92;;;1.63;;
82727;SDS011;72459;50.110;8.750;2024-01-06T02:29:24;5.03;;;1.60;;
82727;SDS011;72459;50.110;8.750;2024-01-06T02:31:49;6.53;;;1.27;;
82727;SDS011;72459;50.110;8.750;2024-01-06T02:34:15;3.83;;;1.53;;
82727;SDS011;72459;50.110;8.750;2024-01-06T02:36:40;6.55;;;1.63;;
82727;SDS011;72459;50.110;8.750;2024-01-06T02:39:06;5.10;;;2.00;;
82727;SDS011;72459;50.110;8.750;2024-01-06T02:41:32;5.68;;;1.73;;
82727;SDS011;72459;50.110;8.750;2024-01-06T02:43:58;4.88;;;1.40;;
82727;SDS011;72459;50.110;8.750;2024-01-06T02:46:24;3.58;;;1.33;;
82727;SDS011;72459;50.110;8.750;2024-01-06T02:48:49;4.77;;;1.70;;
82727;SDS011;72459;50.110;8.750;2024-01-06T02:51:14;2.73;;;1.10;;
82727;SDS011;72459;50.110;8.750;2024-01-06T02:53:40;4.55;;;1.27;;
82727;SDS011;72459;50.110;8.750;2024-01-06T02:56:09;3.17;;;1.52;;
82727;SDS011;72459;50.110;8.750;2024-01-06T02:58:36;2.78;;;1.40;;
82727;SDS011;72459;50.110;8.750;2024-01-06T03:01:01;5.20;;;1.52;;
82727;SDS011;72459;50.110;8.750;2024-01-06T03:03:26;4.78;;;1.20;;
82727;SDS011;72459;50.110;8.750;2024-01-06T03:05:52;3.63;;;1.38;;
82727;SDS011;72459;50.110;8.750;2024-01-06T03:08:17;2.07;;;1.10;;
82727;SDS011;72459;50.110;8.750;2024-01-06T03:10:44;3.63;;;1.33;;
82727;SDS011;72459;50.110;8.750;2024-01-06T03:13:09;5.88;;;1.50;;
82727;SDS011;72459;50.110;8.750;2024-01-06T03:15:35;4.25;;;1.23;;
82727;SDS011;72459;50.110;8.750;2024-01-06T03:18:00;4.30;;;1.60;;
82727;SDS011;72459;50.110;8.750;2024-01-06T03:20:25;4.03;;;1.27;;
82727;SDS011;72459;50.110;8.750;2024-01-06T03:22:50;9.03;;;2.97;;
82727;SDS011;72459;50.110;8.750;2024-01-06T03:25:16;3.55;;;1.45;;
82727;SDS011;72459;50.110;8.750;2024-01-06T03:27:41;5.25;;;1.70;;
82727;SDS011;72459;50.110;8.750;2024-01-06T03:30:07;3.28;;;1.50;;
82727;SDS011;72459;50.110;8.750;2024-01-06T03:32:32;5.85;;;1.55;;
82727;SDS011;72459;50.110;8.750;2024-01-06T03:34:58;5.03;;;1.52;;
82727;SDS011;72459;50.110;8.750;2024-01-06T03:37:23;3.17;;;1.60;;
82727;SDS011;72459;50.110;8.750;2024-01-06T03:39:49;4.18;;;1.27;;
82727;SDS011;72459;50.110;8.750;2024-01-06T03:42:14;5.45;;;1.38;;
82727;SDS011;72459;50.110;8.750;2024-01-06T03:44:40;5.28;;;1.33;;
82727;SDS011;72459;50.110;8.750;2024-01-06T03:47:05;5.68;;;1.33;;
82727;SDS011;72459;50.110;8.750;2024-01-06T03:49:30;3.60;;;1.52;;
82727;SDS011;72459;50.110;8.750;2024-01-06T03:51:56;4.15;;;1.50;;
82727;SDS011;72459;50.110;8.750;2024-01-06T03:54:21;5.85;;;1.63;;
82727;SDS011;72459;50.110;8.750;2024-01-06T03:56:47;4.25;;;1.40;;
82727;SDS011;72459;50.110;8.750;2024-01-06T03:59:13;4.45;;;1.75;;
82727;SDS011;72459;50.110;8.750;2024-01-06T04:01:38;2.03;;;1.20;;
82727;SDS011;72459;50.110;8.750;2024-01-06T04:04:04;3.20;;;1.65;;
82727;SDS011;72459;50.110;8.750;2024-01-06T04:06:30;4.47;;;1.27;;
82727;SDS011;72459;50.110;8.750;2024-01-06T04:08:57;3.30;;;1.20;;
82727;SDS011;72459;50.110;8.750;2024-01-06T04:11:23;3.88;;;1.27;;
82727;SDS011;72459;50.110;8.750;2024-01-06T04:13:48;5.30;;;1.27;;
82727;SDS011;72459;50.110;8.750;2024-01-06T04:16:14;3.22;;;1.45;;
82727;SDS011;72459;50.110;8.750;2024-01-06T04:18:39;2.78;;;1.35;;
82727;SDS011;72459;50.110;8.750;2024-01-06T04:21:04;4.67;;;1.53;;
82727;SDS011;72459;50.110;8.750;2024-01-06T04:23:30;2.08;;;1.20;;
82727;SDS011;72459;50.110;8.750;2024-01-06T04:25:56;4.72;;;1.50;;
82727;SDS011;72459;50.110;8.750;2024-01-06T04:28:21;3.90;;;1.50;;
82727;SDS011;72459;50.110;8.750;2024-01-06T04:30:46;3.87;;;1.50;;
82727;SDS011;72459;50.110;8.750;2024-01-06T04:33:13;6.60;;;1.80;;
82727;SDS011;72459;50.110;8.750;2024-01-06T04:35:39;4.45;;;1.33;;
82727;SDS011;72459;50.110;8.750;2024-01-06T04:38:04;2.13;;;1.00;;
82727;SDS011;72459;50.110;8.750;2024-01-06T04:40:30;3.22;;;1.30;;
82727;SDS011;72459;50.110;8.750;2024-01-06T04:42:55;3.85;;;1.13;;
82727;SDS011;72459;50.110;8.750;2024-01-06T04:45:21;2.97;;;1.10;;
82727;SDS011;72459;50.110;8.750;2024-01-06T04:50:14;3.92;;;1.35;;
82727;SDS011;72459;50.110;8.750;2024-01-06T04:52:40;2.83;;;1.30;;
82727;SDS011;72459;50.110;8.750;2024-01-06T04:55:05;3.70;;;1.80;;
82727;SDS011;72459;50.110;8.750;2024-01-06T04:57:31;4.18;;;1.48;;
82727;SDS011;72459;50.110;8.750;2024-01-06T04:59:56;3.60;;;1.35;;
82727;SDS011;72459;50.110;8.750;2024-01-06T05:02:23;5.03;;;1.42;;
82727;SDS011;72459;50.110;8.750;2024-01-06T05:04:50;3.85;;;1.35;;
82727;SDS011;72459;50.110;8.750;2024-01-06T05:07:15;3.63;;;1.38;;
82727;SDS011;72459;50.110;8.750;2024-01-06T05:09:40;4.20;;;1.40;;
82727;SDS011;72459;50.110;8.750;2024-01-06T05:12:06;4.10;;;1.10;;
82727;SDS011;72459;50.110;8.750;2024-01-06T05:14:31;3.70;;;1.48;;
82727;SDS011;72459;50.110;8.750;2024-01-06T05:16:57;4.55;;;1.50;;
82727;SDS011;72459;50.110;8.750;2024-01-06T05:19:22;3.78;;;1.58;;
82727;SDS011;72459;50.110;8.750;2024-01-06T05:21:48;4.43;;;1.60;;
82727;SDS011;72459;50.110;8.750;2024-01-06T05:24:14;3.75;;;1.45;;
82727;SDS011;72459;50.110;8.750;2024-01-06T05:26:39;5.75;;;1.38;;
82727;SDS011;72459;50.110;8.750;2024-01-06T05:29:05;5.15;;;1.70;;
82727;SDS011;72459;50.110;8.750;2024-01-06T05:31:30;3.88;;;1.33;;
82727;SDS011;72459;50.110;8.750;2024-01-06T05:33:55;3.10;;;1.30;;
82727;SDS011;72459;50.110;8.750;2024-01-06T05:36:21;6.67;;;1.57;;
82727;SDS011;72459;50.110;8.750;2024-01-06T05:38:46;3.70;;;1.30;;
82727;SDS011;72459;50.110;8.750;2024-01-06T05:41:11;4.57;;;1.88;;
82727;SDS011;72459;50.110;8.750;2024-01-06T05:43:37;3.23;;;1.50;;
82727;SDS011;72459;50.110;8.750;2024-01-06T05:46:02;5.40;;;1.50;;
82727;SDS011;72459;50.110;8.750;2024-01-06T05:48:27;4.70;;;1.45;;
82727;SDS011;72459;50.110;8.750;2024-01-06T05:50:55;2.88;;;1.30;;
82727;SDS011;72459;50.110;8.750;2024-01-06T05:53:21;5.05;;;1.40;;
82727;SDS011;72459;50.110;8.750;2024-01-06T05:55:46;4.72;;;1.63;;
82727;SDS011;72459;50.110;8.750;2024-01-06T05:58:12;4.25;;;1.55;;
82727;SDS011;72459;50.110;8.750;2024-01-06T06:00:37;2.42;;;1.38;;
82727;SDS011;72459;50.110;8.750;2024-01-06T06:03:03;3.38;;;1.40;;
82727;SDS011;72459;50.110;8.750;2024-01-06T06:05:29;5.50;;;1.60;;
82727;SDS011;72459;50.110;8.750;2024-01-06T06:07:54;7.50;;;1.80;;
82727;SDS011;72459;50.110;8.750;2024-01-06T06:10:20;5.13;;;1.53;;
82727;SDS011;72459;50.110;8.750;2024-01-06T06:12:45;4.05;;;1.55;;
82727;SDS011;72459;50.110;8.750;2024-01-06T06:15:11;4.07;;;1.63;;
82727;SDS011;72459;50.110;8.750;2024-01-06T06:17:36;4.00;;;1.55;;
82727;SDS011;72459;50.110;8.750;2024-01-06T06:20:02;5.93;;;2.13;;
82727;SDS011;72459;50.110;8.750;2024-01-06T06:22:28;3.65;;;1.60;;
82727;SDS011;72459;50.110;8.750;2024-01-06T06:24:56;4.18;;;1.30;;
82727;SDS011;72459;50.110;8.750;2024-01-06T06:27:23;5.70;;;1.65;;
82727;SDS011;72459;50.110;8.750;2024-01-06T06:29:48;4.22;;;1.60;;
82727;SDS011;72459;50.110;8.750;2024-01-06T06:32:14;3.55;;;1.45;;
82727;SDS011;72459;50.110;8.750;2024-01-06T06:34:39;4.83;;;1.60;;
82727;SDS011;72459;50.110;8.750;2024-01-06T06:37:05;3.85;;;1.60;;
82727;SDS011;72459;50.110;8.750;2024-01-06T06:39:31;3.60;;;1.60;;
82727;SDS011;72459;50.110;8.750;2024-01-06T06:41:58;8.32;;;1.80;;
82727;SDS011;72459;50.110;8.750;2024-01-06T06:44:23;5.50;;;1.77;;
82727;SDS011;72459;50.110;8.750;2024-01-06T06:46:49;6.40;;;1.73;;
82727;SDS011;72459;50.110;8.750;2024-01-06T06:49:14;4.73;;;1.40;;
82727;SDS011;72459;50.110;8.750;2024-01-06T06:51:39;5.40;;;1.60;;
82727;SDS011;72459;50.110;8.750;2024-01-06T06:54:11;6.25;;;2.00;;
82727;SDS011;72459;50.110;8.750;2024-01-06T06:56:37;3.30;;;1.60;;
82727;SDS011;72459;50.110;8.750;2024-01-06T06:59:02;3.95;;;1.70;;
82727;SDS011;72459;50.110;8.750;2024-01-06T07:01:28;3.27;;;1.77;;
82727;SDS011;72459;50.110;8.750;2024-01-06T07:03:53;2.60;;;1.75;;
82727;SDS011;72459;50.110;8.750;2024-01-06T07:06:19;6.65;;;1.95;;
82727;SDS011;72459;50.110;8.750;2024-01-06T07:08:44;6.25;;;1.80;;
82727;SDS011;72459;50.110;8.750;2024-01-06T07:11:10;3.95;;;1.60;;
82727;SDS011;72459;50.110;8.750;2024-01-06T07:13:36;5.20;;;1.80;;
82727;SDS011;72459;50.110;8.750;2024-01-06T07:16:02;3.10;;;1.60;;
82727;SDS011;72459;50.110;8.750;2024-01-06T07:18:27;5.57;;;2.08;;
82727;SDS011;72459;50.110;8.750;2024-01-06T07:20:53;4.45;;;1.77;;
82727;SDS011;72459;50.110;8.750;2024-01-06T07:23:18;4.70;;;2.10;;
82727;SDS011;72459;50.110;8.750;2024-01-06T07:25:43;4.85;;;2.20;;
82727;SDS011;72459;50.110;8.750;2024-01-06T07:28:09;4.53;;;1.70;;
82727;SDS011;72459;50.110;8.750;2024-01-06T07:30:34;3.67;;;1.75;;
82727;SDS011;72459;50.110;8.750;2024-01-06T07:33:00;4.23;;;2.00;;
82727;SDS011;72459;50.110;8.750;2024-01-06T07:35:25;4.85;;;1.65;;
82727;SDS011;72459;50.110;8.750;2024-01-06T07:37:50;6.78;;;2.13;;
82727;SDS011;72459;50.110;8.750;2024-01-06T07:40:16;6.03;;;1.65;;
82727;SDS011;72459;50.110;8.750;2024-01-06T07:42:42;5.07;;;1.92;;
82727;SDS011;72459;50.110;8.750;2024-01-06T07:45:08;4.95;;;1.98;;
82727;SDS011;72459;50.110;8.750;2024-01-06T07:47:34;4.95;;;1.58;;
82727;SDS011;72459;50.110;8.750;2024-01-06T07:50:00;2.97;;;1.55;;
82727;SDS011;72459;50.110;8.750;2024-01-06T07:52:26;3.15;;;2.00;;
82727;SDS011;72459;50.110;8.750;2024-01-06T07:54:52;4.32;;;1.90;;
82727;SDS011;72459;50.110;8.750;2024-01-06T07:57:17;4.30;;;1.70;;
82727;SDS011;72459;50.110;8.750;2024-01-06T07:59:42;4.93;;;1.67;;
82727;SDS011;72459;50.110;8.750;2024-01-06T08:02:08;6.25;;;1.98;;
82727;SDS011;72459;50.110;8.750;2024-01-06T08:04:33;6.07;;;1.73;;
82727;SDS011;72459;50.110;8.750;2024-01-06T08:06:59;5.70;;;2.00;;
82727;SDS011;72459;50.110;8.750;2024-01-06T08:09:24;4.15;;;3.00;;
82727;SDS011;72459;50.110;8.750;2024-01-06T08:11:50;3.80;;;1.67;;
82727;SDS011;72459;50.110;8.750;2024-01-06T08:14:15;5.17;;;2.07;;
82727;SDS011;72459;50.110;8.750;2024-01-06T08:16:42;3.25;;;1.70;;
82727;SDS011;72459;50.110;8.750;2024-01-06T08:19:08;3.08;;;1.70;;
82727;SDS011;72459;50.110;8.750;2024-01-06T08:21:33;3.90;;;1.75;;
82727;SDS011;72459;50.110;8.750;2024-01-06T08:23:59;4.45;;;1.80;;
82727;SDS011;72459;50.110;8.750;2024-01-06T08:26:26;6.50;;;2.17;;
82727;SDS011;72459;50.110;8.750;2024-01-06T08:28:52;7.82;;;2.13;;
82727;SDS011;72459;50.110;8.750;2024-01-06T08:31:17;7.28;;;2.25;;
82727;SDS011;72459;50.110;8.750;2024-01-06T08:33:43;4.90;;;2.20;;
82727;SDS011;72459;50.110;8.750;2024-01-06T08:36:08;7.53;;;2.23;;
82727;SDS011;72459;50.110;8.750;2024-01-06T08:38:34;4.07;;;2.13;;
82727;SDS011;72459;50.110;8.750;2024-01-06T08:41:00;4.45;;;1.92;;
82727;SDS011;72459;50.110;8.750;2024-01-06T08:43:27;3.40;;;2.20;;
82727;SDS011;72459;50.110;8.750;2024-01-06T08:45:52;5.35;;;2.65;;
82727;SDS011;72459;50.110;8.750;2024-01-06T08:48:18;6.45;;;2.40;;
82727;SDS011;72459;50.110;8.750;2024-01-06T08:50:44;5.90;;;2.20;;
82727;SDS011;72459;50.110;8.750;2024-01-06T08:53:10;5.15;;;2.45;;
82727;SDS011;72459;50.110;8.750;2024-01-06T08:55:36;8.18;;;2.40;;
82727;SDS011;72459;50.110;8.750;2024-01-06T08:58:02;5.40;;;2.80;;
82727;SDS011;72459;50.110;8.750;2024-01-06T09:00:27;4.97;;;2.38;;
82727;SDS011;72459;50.110;8.750;2024-01-06T09:02:53;5.15;;;2.20;;
82727;SDS011;72459;50.110;8.750;2024-01-06T09:05:18;7.30;;;2.63;;
82727;SDS011;72459;50.110;8.750;2024-01-06T09:07:43;5.78;;;2.70;;
82727;SDS011;72459;50.110;8.750;2024-01-06T09:10:17;5.82;;;2.45;;
82727;SDS011;72459;50.110;8.750;2024-01-06T09:12:43;6.57;;;2.30;;
82727;SDS011;72459;50.110;8.750;2024-01-06T09:15:08;6.25;;;2.50;;
82727;SDS011;72459;50.110;8.750;2024-01-06T09:17:34;4.43;;;2.60;;
82727;SDS011;72459;50.110;8.750;2024-01-06T09:19:59;5.57;;;2.67;;
82727;SDS011;72459;50.110;8.750;2024-01-06T09:22:26;5.10;;;2.58;;
82727;SDS011;72459;50.110;8.750;2024-01-06T09:24:51;5.50;;;2.35;;
82727;SDS011;72459;50.110;8.750;2024-01-06T09:27:19;5.53;;;2.63;;
82727;SDS011;72459;50.110;8.750;2024-01-06T09:29:45;4.30;;;2.30;;
82727;SDS011;72459;50.110;8.750;2024-01-06T09:32:10;7.30;;;2.67;;
82727;SDS011;72459;50.110;8.750;2024-01-06T09:34:35;5.05;;;2.47;;
82727;SDS011;72459;50.110;8.750;2024-01-06T09:37:02;4.72;;;2.40;;
82727;SDS011;72459;50.110;8.750;2024-01-06T09:39:28;3.10;;;2.60;;
82727;SDS011;72459;50.110;8.750;2024-01-06T09:41:55;6.03;;;2.90;;
82727;SDS011;72459;50.110;8.750;2024-01-06T09:44:21;5.47;;;2.92;;
82727;SDS011;72459;50.110;8.750;2024-01-06T09:46:46;6.00;;;2.38;;
82727;SDS011;72459;50.110;8.750;2024-01-06T09:49:12;4.00;;;2.30;;
82727;SDS011;72459;50.110;8.750;2024-01-06T09:51:40;6.93;;;2.70;;
82727;SDS011;72459;50.110;8.750;2024-01-06T09:54:07;5.15;;;2.47;;
82727;SDS011;72459;50.110;8.750;2024-01-06T09:56:35;6.13;;;2.70;;
82727;SDS011;72459;50.110;8.750;2024-01-06T09:59:01;6.03;;;2.78;;
82727;SDS011;72459;50.110;8.750;2024-01-06T10:01:27;3.85;;;2.70;;
82727;SDS011;72459;50.110;8.750;2024-01-06T10:03:55;4.63;;;2.95;;
82727;SDS011;72459;50.110;8.750;2024-01-06T10:06:20;5.70;;;2.63;;
82727;SDS011;72459;50.110;8.750;2024-01-06T10:08:50;6.93;;;2.60;;
82727;SDS011;72459;50.110;8.750;2024-01-06T10:11:16;6.72;;;2.90;;
82727;SDS011;72459;50.110;8.750;2024-01-06T10:13:42;8.30;;;2.92;;
82727;SDS011;72459;50.110;8.750;2024-01-06T10:16:08;8.32;;;3.20;;
82727;SDS011;72459;50.110;8.750;2024-01-06T10:18:33;6.38;;;3.20;;
82727;SDS011;72459;50.110;8.750;2024-01-06T10:21:02;6.45;;;2.97;;
82727;SDS011;72459;50.110;8.750;2024-01-06T10:23:32;5.72;;;2.85;;
82727;SDS011;72459;50.110;8.750;2024-01-06T10:25:58;6.55;;;2.88;;
82727;SDS011;72459;50.110;8.750;2024-01-06T10:28:24;5.03;;;2.90;;
82727;SDS011;72459;50.110;8.750;2024-01-06T10:30:53;6.28;;;2.70;;
82727;SDS011;72459;50.110;8.750;2024-01-06T10:33:20;6.15;;;2.80;;
82727;SDS011;72459;50.110;8.750;2024-01-06T10:35:49;5.88;;;3.60;;
82727;SDS011;72459;50.110;8.750;2024-01-06T10:38:14;5.65;;;3.20;;
82727;SDS011;72459;50.110;8.750;2024-01-06T10:40:56;6.60;;;2.92;;
82727;SDS011;72459;50.110;8.750;2024-01-06T10:43:23;6.78;;;3.42;;
82727;SDS011;72459;50.110;8.750;2024-01-06T10:45:51;5.32;;;3.08;;
82727;SDS011;72459;50.110;8.750;2024-01-06T10:48:20;6.50;;;4.07;;
82727;SDS011;72459;50.110;8.750;2024-01-06T10:50:46;5.80;;;2.80;;
82727;SDS011;72459;50.110;8.750;2024-01-06T10:53:13;6.65;;;3.08;;
82727;SDS011;72459;50.110;8.750;2024-01-06T10:55:40;9.18;;;3.55;;
82727;SDS011;72459;50.110;8.750;2024-01-06T10:58:06;7.57;;;3.30;;
82727;SDS011;72459;50.110;8.750;2024-01-06T11:00:33;7.53;;;2.85;;
82727;SDS011;72459;50.110;8.750;2024-01-06T11:02:58;5.40;;;2.67;;
82727;SDS011;72459;50.110;8.750;2024-01-06T11:05:25;4.10;;;2.85;;
82727;SDS011;72459;50.110;8.750;2024-01-06T11:07:51;4.68;;;2.72;;
82727;SDS011;72459;50.110;8.750;2024-01-06T11:10:20;5.55;;;2.90;;
82727;SDS011;72459;50.110;8.750;2024-01-06T11:13:05;6.07;;;2.72;;
82727;SDS011;72459;50.110;8.750;2024-01-06T11:15:39;4.55;;;2.80;;
82727;SDS011;72459;50.110;8.750;2024-01-06T11:18:31;6.72;;;3.47;;
82727;SDS011;72459;50.110;8.750;2024-01-06T11:24:03;6.90;;;2.83;;
82727;SDS011;72459;50.110;8.750;2024-01-06T11:26:31;5.97;;;2.92;;
82727;SDS011;72459;50.110;8.750;2024-01-06T11:28:57;6.65;;;3.38;;
82727;SDS011;72459;50.110;8.750;2024-01-06T11:31:28;6.13;;;3.15;;
82727;SDS011;72459;50.110;8.750;2024-01-06T11:33:55;4.90;;;3.28;;
82727;SDS011;72459;50.110;8.750;2024-01-06T11:36:21;4.65;;;2.80;;
82727;SDS011;72459;50.110;8.750;2024-01-06T11:38:47;6.45;;;2.85;;
82727;SDS011;72459;50.110;8.750;2024-01-06T11:41:49;4.65;;;2.78;;
82727;SDS011;72459;50.110;8.750;2024-01-06T11:44:17;6.07;;;2.80;;
82727;SDS011;72459;50.110;8.750;2024-01-06T11:46:45;5.45;;;2.90;;
82727;SDS011;72459;50.110;8.750;2024-01-06T11:49:11;7.32;;;3.00;;
82727;SDS011;72459;50.110;8.750;2024-01-06T11:51:40;4.70;;;3.20;;
82727;SDS011;72459;50.110;8.750;2024-01-06T11:54:05;6.68;;;2.88;;
82727;SDS011;72459;50.110;8.750;2024-01-06T11:56:31;5.82;;;3.00;;
82727;SDS011;72459;50.110;8.750;2024-01-06T11:58:56;7.22;;;3.10;;
82727;SDS011;72459;50.110;8.750;2024-01-06T12:01:21;6.07;;;2.83;;
82727;SDS011;72459;50.110;8.750;2024-01-06T12:03:52;7.38;;;3.38;;
82727;SDS011;72459;50.110;8.750;2024-01-06T12:06:20;5.80;;;2.67;;
82727;SDS011;72459;50.110;8.750;2024-01-06T12:08:48;8.15;;;3.40;;
82727;SDS011;72459;50.110;8.750;2024-01-06T12:11:16;6.70;;;3.47;;
82727;SDS011;72459;50.110;8.750;2024-01-06T12:13:46;5.00;;;3.55;;
82727;SDS011;72459;50.110;8.750;2024-01-06T12:16:11;6.35;;;3.13;;
82727;SDS011;72459;50.110;8.750;2024-01-06T12:18:37;4.93;;;3.40;;
82727;SDS011;72459;50.110;8.750;2024-01-06T12:21:02;6.03;;;3.80;;
82727;SDS011;72459;50.110;8.750;2024-01-06T12:23:28;5.15;;;3.72;;
82727;SDS011;72459;50.110;8.750;2024-01-06T12:25:54;4.75;;;3.65;;
82727;SDS011;72459;50.110;8.750;2024-01-06T12:28:20;7.50;;;4.47;;
82727;SDS011;72459;50.110;8.750;2024-01-06T12:30:46;6.25;;;3.67;;
82727;SDS011;72459;50.110;8.750;2024-01-06T12:33:12;6.68;;;4.22;;
82727;SDS011;72459;50.110;8.750;2024-01-06T12:35:38;8.10;;;4.15;;
82727;SDS011;72459;50.110;8.750;2024-01-06T12:38:04;7.75;;;3.67;;
82727;SDS011;72459;50.110;8.750;2024-01-06T12:40:33;5.65;;;3.55;;
82727;SDS011;72459;50.110;8.750;2024-01-06T12:43:00;6.88;;;3.90;;
82727;SDS011;72459;50.110;8.750;2024-01-06T12:45:26;5.90;;;3.50;;
82727;SDS011;72459;50.110;8.750;2024-01-06T12:47:52;5.32;;;3.47;;
82727;SDS011;72459;50.110;8.750;2024-01-06T12:50:19;7.45;;;3.42;;
82727;SDS011;72459;50.110;8.750;2024-01-06T12:52:44;7.30;;;4.05;;
82727;SDS011;72459;50.110;8.750;2024-01-06T12:55:11;6.40;;;3.72;;
82727;SDS011;72459;50.110;8.750;2024-01-06T12:57:36;6.95;;;3.60;;
82727;SDS011;72459;50.110;8.750;2024-01-06T13:00:02;4.93;;;3.25;;
82727;SDS011;72459;50.110;8.750;2024-01-06T13:02:28;5.20;;;3.03;;
82727;SDS011;72459;50.110;8.750;2024-01-06T13:04:54;5.70;;;3.50;;
82727;SDS011;72459;50.110;8.750;2024-01-06T13:07:20;8.43;;;3.55;;
82727;SDS011;72459;50.110;8.750;2024-01-06T13:09:47;5.35;;;3.33;;
82727;SDS011;72459;50.110;8.750;2024-01-06T13:12:13;6.05;;;3.35;;
82727;SDS011;72459;50.110;8.750;2024-01-06T13:14:38;6.45;;;3.58;;
82727;SDS011;72459;50.110;8.750;2024-01-06T13:17:04;6.75;;;3.50;;
82727;SDS011;72459;50.110;8.750;2024-01-06T13:19:30;5.68;;;3.00;;
82727;SDS011;72459;50.110;8.750;2024-01-06T13:21:55;6.93;;;3.25;;
82727;SDS011;72459;50.110;8.750;2024-01-06T13:24:21;7.25;;;3.63;;
82727;SDS011;72459;50.110;8.750;2024-01-06T13:26:48;6.38;;;3.42;;
82727;SDS011;72459;50.110;8.750;2024-01-06T13:29:14;5.45;;;3.78;;
82727;SDS011;72459;50.110;8.750;2024-01-06T13:31:39;6.50;;;3.30;;
82727;SDS011;72459;50.110;8.750;2024-01-06T13:34:05;5.28;;;3.33;;
82727;SDS011;72459;50.110;8.750;2024-01-06T13:36:30;5.68;;;3.40;;
82727;SDS011;72459;50.110;8.750;2024-01-06T13:38:56;6.55;;;3.15;;
82727;SDS011;72459;50.110;8.750;2024-01-06T13:41:22;6.53;;;3.35;;
82727;SDS011;72459;50.110;8.750;2024-01-06T13:43:47;5.82;;;3.00;;
82727;SDS011;72459;50.110;8.750;2024-01-06T13:46:13;6.75;;;3.75;;
82727;SDS011;72459;50.110;8.750;2024-01-06T13:48:39;6.65;;;4.40;;
82727;SDS011;72459;50.110;8.750;2024-01-06T13:51:06;6.68;;;3.88;;
82727;SDS011;72459;50.110;8.750;2024-01-06T13:53:32;6.50;;;2.97;;
82727;SDS011;72459;50.110;8.750;2024-01-06T13:55:58;4.88;;;3.30;;
82727;SDS011;72459;50.110;8.750;2024-01-06T13:58:23;4.30;;;3.30;;
82727;SDS011;72459;50.110;8.750;2024-01-06T14:00:49;5.05;;;3.22;;
82727;SDS011;72459;50.110;8.750;2024-01-06T14:03:14;7.72;;;4.00;;
82727;SDS011;72459;50.110;8.750;2024-01-06T14:05:39;5.65;;;3.10;;
82727;SDS011;72459;50.110;8.750;2024-01-06T14:08:06;8.55;;;3.70;;
82727;SDS011;72459;50.110;8.750;2024-01-06T14:10:31;5.90;;;3.05;;
82727;SDS011;72459;50.110;8.750;2024-01-06T14:12:57;5.28;;;3.17;;
82727;SDS011;72459;50.110;8.750;2024-01-06T14:15:24;6.38;;;3.50;;
82727;SDS011;72459;50.110;8.750;2024-01-06T14:17:51;4.72;;;3.13;;
82727;SDS011;72459;50.110;8.750;2024-01-06T14:20:17;6.22;;;3.10;;
82727;SDS011;72459;50.110;8.750;2024-01-06T14:22:44;5.65;;;3.95;;
82727;SDS011;72459;50.110;8.750;2024-01-06T14:25:10;6.32;;;3.15;;
82727;SDS011;72459;50.110;8.750;2024-01-06T14:27:35;5.45;;;3.38;;
82727;SDS011;72459;50.110;8.750;2024-01-06T14:30:01;4.88;;;3.33;;
82727;SDS011;72459;50.110;8.750;2024-01-06T14:32:26;6.88;;;3.22;;
82727;SDS011;72459;50.110;8.750;2024-01-06T14:34:52;6.68;;;3.38;;
82727;SDS011;72459;50.110;8.750;2024-01-06T14:37:17;5.57;;;3.38;;
82727;SDS011;72459;50.110;8.750;2024-01-06T14:39:43;6.95;;;3.85;;
82727;SDS011;72459;50.110;8.750;2024-01-06T14:42:08;6.38;;;4.03;;
82727;SDS011;72459;50.110;8.750;2024-01-06T14:44:34;5.38;;;3.55;;
82727;SDS011;72459;50.110;8.750;2024-01-06T14:47:00;6.93;;;3.88;;